Time;durP1;ratioP1;P1;durP2;ratioP2;P2;SDS_P1;SDS_P2;PMS_P1;PMS_P2;Temp;Humidity;BMP_temperature;BMP_pressure;BME280_temperature;BME280_humidity;BME280_pressure;Samples;Min_cycle;Max_cycle;Signal;HPM_P1;HPM_P2
2022/05/22 00:02:04;;;;;;;3.12;1.12;;;;;;;14.58;65.30;98170.55;1690605;83;28049;-83
2022/05/22 00:04:30;;;;;;;2.50;1.00;;;;;;;14.63;65.73;98167.02;1700772;83;28175;-83
2022/05/22 00:06:56;;;;;;;1.60;1.07;;;;;;;14.70;66.09;98161.55;1695210;83;28095;-82
2022/05/22 00:09:23;;;;;;;1.45;0.88;;;;;;;14.78;66.38;98159.06;1694901;83;28198;-83
2022/05/22 00:11:50;;;;;;;1.57;1.12;;;;;;;14.79;66.59;98161.19;1695299;82;28076;-82
2022/05/22 00:14:18;;;;;;;2.60;0.98;;;;;;;14.78;66.80;98159.55;1686672;83;28085;-83
2022/05/22 00:16:46;;;;;;;2.65;0.90;;;;;;;14.75;66.94;98161.12;1688204;83;28088;-83
2022/05/22 00:19:15;;;;;;;1.67;1.05;;;;;;;14.70;67.09;98159.39;1694309;83;28044;-85
2022/05/22 00:21:42;;;;;;;1.57;1.15;;;;;;;14.62;67.23;98162.23;1692141;83;28015;-85
2022/05/22 00:24:11;;;;;;;3.05;1.17;;;;;;;14.52;67.42;98154.82;1689136;83;28089;-85
2022/05/22 00:26:39;;;;;;;2.55;1.02;;;;;;;14.44;67.61;98151.23;1688069;83;28104;-83
2022/05/22 00:29:13;;;;;;;2.08;1.30;;;;;;;14.32;67.78;98146.55;1655380;84;28197;-83
2022/05/22 00:31:42;;;;;;;1.75;1.10;;;;;;;14.21;67.97;98151.45;1664625;84;28095;-85
2022/05/22 00:34:09;;;;;;;2.95;1.10;;;;;;;14.15;68.23;98153.31;1684249;83;28075;-88
2022/05/22 00:36:36;;;;;;;1.42;1.25;;;;;;;14.13;68.54;98150.45;1688492;83;28095;-85
2022/05/22 00:39:03;;;;;;;3.90;1.27;;;;;;;14.11;68.89;98146.66;1693768;83;28027;-85
2022/05/22 00:41:31;;;;;;;4.28;1.32;;;;;;;14.07;69.18;98149.20;1690058;83;28086;-88
2022/05/22 00:43:57;;;;;;;4.50;1.30;;;;;;;14.03;69.48;98138.60;1690795;82;28099;-88
2022/05/22 00:46:25;;;;;;;2.47;1.20;;;;;;;14.01;69.78;98144.98;1698885;83;28140;-87
2022/05/22 00:48:54;;;;;;;2.60;1.80;;;;;;;13.97;70.03;98146.20;1693402;83;28163;-85
2022/05/22 00:51:45;;;;;;;2.87;1.12;;;;;;;13.95;70.30;98146.36;1667943;84;28159;-85
2022/05/22 00:54:23;;;;;;;3.33;1.00;;;;;;;13.92;70.59;98141.83;1675017;84;28158;-85
2022/05/22 00:56:55;;;;;;;2.62;1.20;;;;;;;13.93;70.92;98146.12;1693189;82;28049;-87
2022/05/22 00:59:28;;;;;;;1.87;1.17;;;;;;;13.94;71.20;98150.43;1661483;84;28154;-83
2022/05/22 01:01:58;;;;;;;2.75;1.52;;;;;;;13.94;71.49;98157.84;1695725;83;28100;-83
2022/05/22 01:04:36;;;;;;;4.22;1.20;;;;;;;13.88;71.71;98152.28;1696580;83;28091;-84
2022/05/22 01:07:06;;;;;;;4.58;1.57;;;;;;;13.79;71.94;98150.82;1692793;83;28157;-84
2022/05/22 01:09:32;;;;;;;3.42;1.30;;;;;;;13.71;72.16;98155.06;1700331;83;28038;-84
2022/05/22 01:12:04;;;;;;;4.05;1.27;;;;;;;13.62;72.36;98151.45;1695476;83;28084;-84
2022/05/22 01:14:35;;;;;;;1.67;1.20;;;;;;;13.55;72.63;98143.73;1702953;83;28012;-83
2022/05/22 01:17:25;;;;;;;2.33;1.45;;;;;;;13.46;72.92;98142.39;1706042;83;28090;-84
2022/05/22 01:20:00;;;;;;;3.92;1.07;;;;;;;13.36;73.23;98139.22;1707417;83;28034;-83
2022/05/22 01:22:27;;;;;;;4.97;1.45;;;;;;;13.30;73.61;98134.99;1705062;83;28092;-84
2022/05/22 01:24:55;;;;;;;1.72;1.10;;;;;;;13.24;73.89;98141.61;1690704;83;28143;-83
2022/05/22 01:27:26;;;;;;;2.60;1.50;;;;;;;13.17;74.24;98136.98;1671920;84;28188;-83
2022/05/22 01:30:10;;;;;;;2.83;1.27;;;;;;;13.10;74.59;98137.95;1699182;83;28055;-85
2022/05/22 01:32:38;;;;;;;3.35;1.57;;;;;;;13.07;74.90;98141.33;1702333;83;28109;-88
2022/05/22 01:35:06;;;;;;;4.12;1.30;;;;;;;13.06;75.34;98139.19;1703100;83;28103;-87
2022/05/22 01:37:32;;;;;;;3.77;1.07;;;;;;;13.07;75.67;98137.39;1666510;84;28015;-87
2022/05/22 01:39:58;;;;;;;1.62;1.32;;;;;;;13.06;76.01;98136.55;1708239;83;28121;-83
2022/05/22 01:42:25;;;;;;;4.60;1.50;;;;;;;13.06;76.34;98135.72;1709137;83;28160;-85
2022/05/22 01:44:51;;;;;;;2.02;1.45;;;;;;;13.03;76.60;98134.20;1712089;83;28004;-84
2022/05/22 01:47:17;;;;;;;4.15;1.22;;;;;;;13.01;76.88;98133.48;1709311;81;28093;-84
2022/05/22 01:49:48;;;;;;;2.47;1.67;;;;;;;13.00;77.13;98133.13;1712580;83;28008;-85
2022/05/22 01:52:11;;;;;;;2.50;1.32;;;;;;;12.99;77.42;98132.30;1703904;83;28084;-83
2022/05/22 01:54:38;;;;;;;3.92;1.40;;;;;;;13.02;77.72;98131.70;1701696;83;28101;-83
2022/05/22 01:57:12;;;;;;;1.82;1.30;;;;;;;13.04;78.00;98136.35;1666594;84;28146;-83
2022/05/22 01:59:47;;;;;;;3.72;1.20;;;;;;;13.08;78.31;98135.12;1693588;84;28087;-83
2022/05/22 02:02:16;;;;;;;1.60;1.10;;;;;;;13.11;78.60;98132.22;1691368;84;28063;-85
2022/05/22 02:04:42;;;;;;;2.65;1.35;;;;;;;13.11;78.80;98137.47;1691583;84;28092;-85
2022/05/22 02:09:54;;;;;;;1.87;1.35;;;;;;;13.10;79.24;98125.30;1692060;84;28091;-83
2022/05/22 02:12:20;;;;;;;1.95;1.45;;;;;;;13.13;79.50;98118.03;1691697;84;28144;-88
2022/05/22 02:14:47;;;;;;;2.50;1.00;;;;;;;13.15;79.68;98118.72;1690474;83;28074;-83
2022/05/22 02:17:13;;;;;;;2.22;1.30;;;;;;;13.18;79.90;98122.89;1692926;84;28164;-87
2022/05/22 02:19:40;;;;;;;2.25;1.37;;;;;;;13.21;80.13;98123.93;1690914;84;28091;-87
2022/05/22 02:22:06;;;;;;;2.10;1.37;;;;;;;13.23;80.33;98115.45;1692475;83;28104;-83
2022/05/22 02:24:32;;;;;;;3.02;1.40;;;;;;;13.24;80.55;98116.64;1693367;84;28087;-82
2022/05/22 02:26:58;;;;;;;2.05;1.37;;;;;;;13.26;80.76;98113.86;1689238;84;28120;-85
2022/05/22 02:29:26;;;;;;;2.52;1.50;;;;;;;13.25;80.91;98111.73;1673930;84;28081;-84
2022/05/22 02:32:01;;;;;;;6.00;1.40;;;;;;;13.29;81.05;98116.23;1693626;84;28086;-85
2022/05/22 02:34:27;;;;;;;2.52;1.40;;;;;;;13.27;81.16;98113.73;1690054;84;28110;-85
2022/05/22 02:37:00;;;;;;;4.35;1.50;;;;;;;13.29;81.35;98121.50;1694537;84;28071;-84
2022/05/22 02:39:27;;;;;;;5.40;1.45;;;;;;;13.30;81.48;98115.28;1677033;83;28108;-86
2022/05/22 02:41:53;;;;;;;3.80;1.80;;;;;;;13.27;81.66;98112.90;1688050;83;28010;-86
2022/05/22 02:44:19;;;;;;;5.05;1.40;;;;;;;13.28;81.81;98121.14;1696032;83;28210;-84
2022/05/22 02:46:46;;;;;;;3.08;1.60;;;;;;;13.29;81.91;98126.75;1673680;84;28102;-84
2022/05/22 02:49:12;;;;;;;4.00;1.52;;;;;;;13.26;82.00;98117.80;1631902;87;28055;-84
2022/05/22 02:51:38;;;;;;;4.45;1.50;;;;;;;13.22;82.10;98122.50;1659302;86;28130;-89
2022/05/22 02:54:04;;;;;;;2.98;1.50;;;;;;;13.21;82.26;98120.83;1693355;82;28152;-88
2022/05/22 02:56:30;;;;;;;3.77;1.70;;;;;;;13.20;82.40;98129.66;1712837;83;28119;-89
2022/05/22 02:58:58;;;;;;;2.02;1.62;;;;;;;13.19;82.54;98127.19;1672398;84;28136;-88
2022/05/22 03:01:24;;;;;;;2.85;1.50;;;;;;;13.17;82.68;98119.91;1676395;83;28090;-86
2022/05/22 03:03:51;;;;;;;3.58;1.82;;;;;;;13.12;82.78;98121.62;1707611;83;28171;-86
2022/05/22 03:09:04;;;;;;;7.22;1.60;;;;;;;13.12;83.08;98120.30;1677962;84;28114;-84
2022/05/22 03:11:32;;;;;;;2.20;1.40;;;;;;;13.14;83.34;98115.77;1674241;84;28161;-85
2022/05/22 03:13:59;;;;;;;3.52;1.70;;;;;;;13.14;83.49;98118.39;1709752;83;28085;-85
2022/05/22 03:16:25;;;;;;;5.45;1.90;;;;;;;13.15;83.66;98115.25;1676135;84;28079;-85
2022/05/22 03:18:54;;;;;;;3.27;1.50;;;;;;;13.14;83.81;98103.11;1678221;84;28011;-85
2022/05/22 03:21:22;;;;;;;3.98;1.70;;;;;;;13.16;83.98;98107.73;1710055;82;28107;-85
2022/05/22 03:23:49;;;;;;;3.40;1.25;;;;;;;13.18;84.10;98102.70;1703760;83;28109;-88
2022/05/22 03:26:15;;;;;;;3.87;1.82;;;;;;;13.17;84.21;98104.14;1711404;83;28139;-84
2022/05/22 03:28:41;;;;;;;3.27;1.35;;;;;;;13.16;84.33;98106.41;1705775;83;28068;-85
2022/05/22 03:31:08;;;;;;;3.00;1.67;;;;;;;13.12;84.41;98108.48;1703981;83;28100;-86
2022/05/22 03:33:34;;;;;;;2.50;1.75;;;;;;;13.07;84.54;98110.64;1705924;83;28179;-86
2022/05/22 03:36:03;;;;;;;4.60;1.77;;;;;;;13.01;84.64;98116.41;1708687;83;28033;-89
2022/05/22 03:38:30;;;;;;;3.77;1.65;;;;;;;12.97;84.79;98117.64;1709856;83;28080;-86
2022/05/22 03:40:58;;;;;;;4.35;1.60;;;;;;;12.95;85.00;98114.30;1712983;83;28019;-86
2022/05/22 03:43:26;;;;;;;4.67;2.12;;;;;;;12.95;85.22;98119.55;1679292;83;28084;-86
2022/05/22 03:45:52;;;;;;;4.58;2.45;;;;;;;12.95;85.50;98123.02;1711363;83;28048;-84
2022/05/22 03:48:18;;;;;;;3.40;2.25;;;;;;;12.97;85.81;98126.83;1708232;83;28120;-87
2022/05/22 03:50:48;;;;;;;6.30;2.00;;;;;;;12.97;86.07;98118.95;1705224;83;27989;-84
2022/05/22 03:53:17;;;;;;;4.70;2.05;;;;;;;12.95;86.30;98120.39;1708095;83;28072;-84
2022/05/22 03:55:44;;;;;;;5.00;2.10;;;;;;;12.97;86.55;98122.42;1713869;83;28174;-84
2022/05/22 03:58:10;;;;;;;6.45;2.40;;;;;;;12.99;86.80;98126.20;1717096;83;28079;-85
2022/05/22 04:00:37;;;;;;;3.72;2.22;;;;;;;12.99;87.09;98127.52;1715022;83;28089;-85
2022/05/22 04:03:09;;;;;;;6.12;2.33;;;;;;;13.01;87.36;98132.17;1711481;83;28076;-89
2022/05/22 04:05:36;;;;;;;7.08;2.12;;;;;;;13.02;87.58;98132.53;1675997;84;28175;-84
2022/05/22 04:08:02;;;;;;;5.03;2.30;;;;;;;13.05;87.81;98129.62;1677811;84;28025;-86
2022/05/22 04:10:28;;;;;;;4.58;2.20;;;;;;;13.06;88.01;98125.21;1669897;84;28199;-84
2022/05/22 04:12:54;;;;;;;5.65;2.27;;;;;;;13.09;88.22;98124.97;1693567;83;28064;-86
2022/05/22 04:15:22;;;;;;;4.40;2.15;;;;;;;13.10;88.47;98116.09;1697265;83;28019;-86
2022/05/22 04:17:48;;;;;;;6.28;2.65;;;;;;;13.12;88.76;98121.62;1704981;82;28071;-86
2022/05/22 04:20:16;;;;;;;3.22;2.30;;;;;;;13.14;89.05;98119.70;1714370;82;28025;-86
2022/05/22 04:25:34;;;;;;;4.90;2.77;;;;;;;13.17;89.44;98120.75;1715870;83;28111;-84
2022/05/22 04:28:01;;;;;;;4.85;2.77;;;;;;;13.20;89.72;98118.35;1710941;83;28023;-84
2022/05/22 04:30:29;;;;;;;4.87;2.58;;;;;;;13.22;89.93;98123.81;1699560;83;28190;-84
2022/05/22 04:32:57;;;;;;;3.83;2.37;;;;;;;13.24;90.20;98121.06;1696843;83;28159;-86
2022/05/22 04:35:25;;;;;;;4.83;2.35;;;;;;;13.28;90.48;98119.83;1698825;83;28185;-84
2022/05/22 04:37:51;;;;;;;6.78;3.08;;;;;;;13.35;90.77;98117.03;1699857;82;28006;-89
2022/05/22 04:40:19;;;;;;;4.40;2.15;;;;;;;13.43;91.08;98122.92;1674102;84;28097;-89
2022/05/22 04:42:45;;;;;;;6.45;2.70;;;;;;;13.45;91.33;98118.37;1676521;84;28150;-84
2022/05/22 04:45:18;;;;;;;3.45;2.02;;;;;;;13.53;91.57;98118.55;1698791;83;28283;-84
2022/05/22 04:47:50;;;;;;;5.60;2.22;;;;;;;13.56;91.82;98115.17;1674180;84;28110;-85
2022/05/22 04:50:18;;;;;;;6.42;2.50;;;;;;;13.61;92.04;98114.28;1696834;83;28129;-85
2022/05/22 04:52:44;;;;;;;6.15;2.75;;;;;;;13.67;92.22;98117.70;1675688;84;28164;-88
2022/05/22 04:55:10;;;;;;;3.33;1.92;;;;;;;13.73;92.46;98126.37;1704536;83;28087;-84
2022/05/22 04:57:37;;;;;;;5.45;2.58;;;;;;;13.80;92.70;98120.09;1715164;83;28099;-84
2022/05/22 05:00:06;;;;;;;4.42;2.27;;;;;;;13.87;92.88;98120.36;1710788;83;28029;-89
2022/05/22 05:02:32;;;;;;;4.25;2.33;;;;;;;13.95;93.19;98114.78;1710367;83;28132;-84
2022/05/22 05:04:59;;;;;;;5.08;1.87;;;;;;;14.03;93.38;98118.03;1714042;83;28081;-85
2022/05/22 05:07:25;;;;;;;2.95;1.90;;;;;;;14.10;93.56;98113.90;1715093;83;28232;-84
2022/05/22 05:09:52;;;;;;;3.15;1.87;;;;;;;14.17;93.74;98113.23;1670871;84;28084;-85
2022/05/22 05:12:19;;;;;;;5.05;1.80;;;;;;;14.23;93.79;98115.80;1716954;82;28078;-89
2022/05/22 05:14:48;;;;;;;5.80;2.05;;;;;;;14.28;93.86;98118.84;1681066;84;28086;-84
2022/05/22 05:17:16;;;;;;;6.08;2.10;;;;;;;14.31;93.94;98115.92;1678703;84;28144;-88
2022/05/22 05:19:43;;;;;;;5.45;2.30;;;;;;;14.40;94.09;98124.84;1712344;83;28069;-86
2022/05/22 05:22:10;;;;;;;4.87;1.90;;;;;;;14.47;94.21;98121.49;1713122;83;28155;-86
2022/05/22 05:24:36;;;;;;;5.50;2.00;;;;;;;14.53;94.30;98115.67;1714146;83;28104;-86
2022/05/22 05:27:03;;;;;;;3.15;2.25;;;;;;;14.56;94.32;98121.16;1705477;83;28004;-86
2022/05/22 05:29:29;;;;;;;4.72;1.90;;;;;;;14.57;94.40;98118.37;1709845;83;28068;-86
2022/05/22 05:31:55;;;;;;;4.50;1.80;;;;;;;14.56;94.36;98118.02;1713995;83;28026;-86
2022/05/22 05:34:22;;;;;;;4.78;1.77;;;;;;;14.53;94.23;98118.30;1713481;83;28218;-86
2022/05/22 05:36:49;;;;;;;4.60;1.82;;;;;;;14.58;94.35;98121.35;1717180;83;28071;-86
2022/05/22 05:39:16;;;;;;;3.80;1.72;;;;;;;14.65;94.56;98109.78;1678427;84;28117;-88
2022/05/22 05:41:42;;;;;;;5.17;1.45;;;;;;;14.72;94.71;98114.84;1676218;84;28071;-84
2022/05/22 05:44:17;;;;;;;5.22;1.67;;;;;;;14.72;94.64;98114.00;1651372;86;28052;-84
2022/05/22 05:46:46;;;;;;;5.22;1.82;;;;;;;14.70;94.53;98114.14;1715844;82;28149;-89
2022/05/22 05:49:13;;;;;;;4.30;1.40;;;;;;;14.65;94.34;98109.30;1717908;82;28190;-89
2022/05/22 05:51:48;;;;;;;4.85;1.42;;;;;;;14.62;94.21;98113.99;1717655;82;28147;-84
2022/05/22 05:54:20;;;;;;;3.15;1.40;;;;;;;14.60;93.97;98119.91;1712947;82;28099;-84
2022/05/22 05:56:46;;;;;;;3.77;1.42;;;;;;;14.62;93.90;98117.46;1687321;82;28103;-89
2022/05/22 05:59:13;;;;;;;5.80;1.72;;;;;;;14.66;94.00;98116.72;1686573;83;28115;-89
2022/05/22 06:01:39;;;;;;;4.50;1.32;;;;;;;14.68;94.10;98106.02;1691772;83;28169;-89
2022/05/22 06:04:07;;;;;;;8.28;2.25;;;;;;;14.74;94.30;98119.46;1691270;83;28081;-85
2022/05/22 06:06:34;;;;;;;6.08;1.92;;;;;;;14.75;94.38;98113.23;1693535;83;28192;-84
2022/05/22 06:09:01;;;;;;;2.65;1.10;;;;;;;14.79;94.53;98119.87;1687209;83;28028;-84
2022/05/22 06:11:27;;;;;;;2.90;1.55;;;;;;;14.83;94.44;98124.39;1693531;84;28070;-84
2022/05/22 06:13:58;;;;;;;3.17;1.37;;;;;;;14.88;94.51;98120.84;1690628;83;28080;-88
2022/05/22 06:16:22;;;;;;;3.70;1.60;;;;;;;14.93;94.64;98112.02;1689092;83;28140;-84
2022/05/22 06:18:56;;;;;;;2.75;1.30;;;;;;;14.94;94.36;98112.38;1661922;85;28097;-84
2022/05/22 06:21:22;;;;;;;3.65;1.20;;;;;;;14.93;94.01;98104.12;1693267;83;28118;-86
2022/05/22 06:23:49;;;;;;;2.30;1.15;;;;;;;15.05;93.95;98106.42;1684877;83;28145;-84
2022/05/22 06:26:19;;;;;;;4.58;1.32;;;;;;;15.15;93.87;98105.09;1701999;83;28091;-85
2022/05/22 06:28:47;;;;;;;3.70;1.30;;;;;;;15.23;93.98;98110.47;1657697;85;28206;-86
2022/05/22 06:31:14;;;;;;;2.42;1.17;;;;;;;15.36;94.13;98108.34;1694322;83;28034;-84
2022/05/22 06:33:41;;;;;;;5.05;1.60;;;;;;;15.46;93.73;98109.63;1682718;83;28174;-84
2022/05/22 06:36:11;;;;;;;2.17;1.12;;;;;;;15.56;93.59;98110.44;1658085;85;28120;-84
2022/05/22 06:41:24;;;;;;;3.87;1.20;;;;;;;15.86;93.79;98096.95;1687021;83;28095;-84
2022/05/22 06:43:51;;;;;;;2.45;1.17;;;;;;;16.07;93.86;98091.88;1694636;83;28190;-84
2022/05/22 06:46:21;;;;;;;2.50;0.95;;;;;;;16.21;93.72;98093.50;1695145;83;28130;-85
2022/05/22 06:48:47;;;;;;;3.40;1.20;;;;;;;16.23;92.80;98103.44;1693910;83;28100;-86
2022/05/22 06:51:14;;;;;;;6.45;1.20;;;;;;;16.25;92.13;98101.97;1693984;82;28029;-86
2022/05/22 06:53:40;;;;;;;3.15;1.37;;;;;;;16.30;91.64;98099.70;1688078;83;28152;-86
2022/05/22 06:56:06;;;;;;;5.97;1.07;;;;;;;16.30;90.98;98101.86;1694359;82;28273;-89
2022/05/22 06:58:33;;;;;;;1.52;1.00;;;;;;;16.28;90.25;98103.81;1703392;83;28034;-89
2022/05/22 07:00:59;;;;;;;1.07;0.85;;;;;;;16.17;89.24;98109.80;1710481;83;28085;-86
2022/05/22 07:03:30;;;;;;;4.10;1.10;;;;;;;16.11;88.58;98116.51;1680544;84;28103;-86
2022/05/22 07:05:54;;;;;;;3.42;0.98;;;;;;;16.14;88.22;98115.39;1679914;84;28200;-89
2022/05/22 07:08:20;;;;;;;1.77;1.00;;;;;;;16.18;87.93;98116.75;1678033;84;28106;-89
2022/05/22 07:13:32;;;;;;;2.17;0.62;;;;;;;16.15;86.57;98111.75;1708090;83;28035;-84
2022/05/22 07:16:05;;;;;;;2.98;0.98;;;;;;;16.18;86.10;98114.94;1707802;83;28092;-84
2022/05/22 07:18:32;;;;;;;2.33;0.90;;;;;;;16.21;85.81;98110.66;1706657;83;28049;-86
2022/05/22 07:20:59;;;;;;;1.85;0.90;;;;;;;16.21;85.32;98120.39;1708640;83;28118;-86
2022/05/22 07:23:26;;;;;;;2.60;0.90;;;;;;;16.16;84.78;98125.30;1703174;83;28166;-86
2022/05/22 07:25:59;;;;;;;2.67;0.70;;;;;;;16.20;84.71;98122.72;1702812;83;28005;-85
2022/05/22 07:28:25;;;;;;;1.35;0.70;;;;;;;16.31;84.66;98118.02;1708415;83;28065;-84
2022/05/22 07:30:52;;;;;;;2.62;0.80;;;;;;;16.38;84.22;98120.06;1708332;83;28103;-84
2022/05/22 07:33:28;;;;;;;4.35;0.90;;;;;;;16.36;83.47;98115.44;1708957;83;28127;-84
2022/05/22 07:35:59;;;;;;;2.67;0.70;;;;;;;16.30;82.89;98117.70;1674472;84;28000;-87
2022/05/22 07:38:25;;;;;;;5.55;0.80;;;;;;;16.27;82.45;98121.95;1709895;83;28089;-85
2022/05/22 07:40:52;;;;;;;2.40;0.93;;;;;;;16.23;82.08;98120.59;1709703;83;28080;-84
2022/05/22 07:43:19;;;;;;;3.05;0.80;;;;;;;16.22;81.87;98121.57;1703935;83;28188;-85
2022/05/22 07:45:45;;;;;;;4.28;0.90;;;;;;;16.22;81.88;98118.93;1714078;83;28084;-84
2022/05/22 07:48:13;;;;;;;2.45;1.10;;;;;;;16.16;81.47;98120.84;1709467;82;28170;-85
2022/05/22 07:50:40;;;;;;;3.87;0.80;;;;;;;16.08;81.12;98127.38;1709084;83;28214;-88
2022/05/22 07:53:10;;;;;;;4.35;1.12;;;;;;;16.09;81.10;98122.93;1702884;83;28167;-85
2022/05/22 07:55:36;;;;;;;6.08;1.22;;;;;;;16.14;81.22;98123.31;1706025;83;28191;-84
2022/05/22 07:58:16;;;;;;;2.17;0.95;;;;;;;16.27;81.51;98116.66;1704993;83;27997;-88
2022/05/22 08:00:54;;;;;;;1.40;0.98;;;;;;;16.32;81.30;98112.25;1710926;83;28059;-89
2022/05/22 08:03:20;;;;;;;2.55;0.80;;;;;;;16.33;80.85;98117.87;1703858;83;28134;-89
2022/05/22 08:05:55;;;;;;;3.10;0.90;;;;;;;16.33;80.13;98115.23;1681700;84;28110;-85
2022/05/22 08:08:23;;;;;;;4.65;1.50;;;;;;;16.43;79.89;98106.73;1673363;84;28150;-85
2022/05/22 08:10:49;;;;;;;1.95;0.90;;;;;;;16.54;79.72;98097.75;1708209;83;28074;-85
2022/05/22 08:13:16;;;;;;;4.15;1.45;;;;;;;16.70;79.75;98099.23;1710619;83;28060;-85
2022/05/22 08:15:43;;;;;;;2.20;0.95;;;;;;;16.76;79.30;98093.82;1712387;83;28058;-84
2022/05/22 08:18:12;;;;;;;2.17;0.82;;;;;;;16.73;78.69;98094.48;1711036;83;28107;-84
2022/05/22 08:20:41;;;;;;;5.12;1.00;;;;;;;16.65;77.73;98102.83;1708455;83;28076;-86
2022/05/22 08:23:13;;;;;;;2.27;0.70;;;;;;;16.48;76.44;98093.07;1700476;83;28073;-85
2022/05/22 08:25:39;;;;;;;2.42;0.68;;;;;;;16.31;75.51;98096.89;1707134;83;28103;-86
2022/05/22 08:28:06;;;;;;;2.10;0.80;;;;;;;16.24;75.10;98098.50;1703677;83;28132;-86
2022/05/22 08:30:33;;;;;;;2.77;0.93;;;;;;;16.25;74.93;98090.09;1705443;83;28071;-89
2022/05/22 08:33:00;;;;;;;2.90;0.90;;;;;;;16.30;75.01;98089.98;1679358;84;28093;-85
2022/05/22 08:35:31;;;;;;;2.60;0.78;;;;;;;16.43;75.26;98090.89;1671947;84;28151;-89
2022/05/22 08:37:58;;;;;;;3.72;0.90;;;;;;;16.51;75.27;98083.05;1675858;84;28133;-86
2022/05/22 08:40:28;;;;;;;2.30;0.85;;;;;;;16.59;75.14;98080.48;1709876;81;28135;-85
2022/05/22 08:43:07;;;;;;;2.33;0.60;;;;;;;16.73;75.28;98081.28;1713056;83;28179;-84
2022/05/22 08:45:46;;;;;;;3.85;0.70;;;;;;;16.87;75.46;98077.22;1704860;83;28104;-84
2022/05/22 08:48:22;;;;;;;4.85;0.93;;;;;;;16.96;75.39;98076.31;1709241;83;28103;-86
2022/05/22 08:50:50;;;;;;;2.12;0.72;;;;;;;17.03;74.99;98077.81;1673759;85;28167;-84
2022/05/22 08:53:20;;;;;;;1.80;0.70;;;;;;;17.14;74.77;98075.73;1710659;83;28196;-84
2022/05/22 08:58:56;;;;;;;2.42;0.72;;;;;;;17.32;74.48;98080.96;1704923;82;28004;-86
2022/05/22 09:01:38;;;;;;;2.40;1.05;;;;;;;17.35;74.18;98078.48;1708821;83;28074;-85
2022/05/22 09:04:14;;;;;;;3.58;0.90;;;;;;;17.42;74.13;98075.55;1707964;82;28072;-89
2022/05/22 09:06:50;;;;;;;2.80;0.82;;;;;;;17.54;74.15;98070.31;1704407;82;28070;-85
2022/05/22 09:09:17;;;;;;;2.77;0.72;;;;;;;17.61;74.09;98064.75;1703377;82;28114;-85
2022/05/22 09:12:20;;;;;;;2.25;0.78;;;;;;;17.69;74.04;98067.41;1701119;83;28094;-86
2022/05/22 09:15:10;;;;;;;2.30;0.62;;;;;;;17.85;74.38;98060.84;1670710;84;28139;-84
2022/05/22 09:17:40;;;;;;;5.50;1.20;;;;;;;18.13;74.86;98049.97;1664177;84;28208;-84
2022/05/22 09:20:19;;;;;;;2.98;0.85;;;;;;;18.14;74.16;98052.46;1707959;83;28116;-86
2022/05/22 09:23:25;;;;;;;6.05;0.90;;;;;;;17.89;72.51;98055.55;1706431;83;28099;-85
2022/05/22 09:26:10;;;;;;;1.40;0.55;;;;;;;17.76;71.63;98053.88;1705667;83;28063;-85
2022/05/22 09:28:54;;;;;;;4.17;1.00;;;;;;;17.78;70.80;98046.58;1663075;84;28167;-86
2022/05/22 09:31:43;;;;;;;2.25;0.60;;;;;;;17.86;70.42;98043.97;1626359;86;28104;-86
2022/05/22 09:34:22;;;;;;;2.95;0.60;;;;;;;17.89;69.69;98038.34;1662433;84;28022;-84
2022/05/22 09:37:04;;;;;;;0.95;0.55;;;;;;;17.93;69.07;98034.89;1654575;84;28097;-84
2022/05/22 09:39:37;;;;;;;5.72;0.80;;;;;;;18.07;69.02;98032.91;1694514;83;28064;-86
2022/05/22 09:42:14;;;;;;;1.42;0.62;;;;;;;18.04;68.38;98035.07;1700316;82;28094;-84
2022/05/22 09:45:01;;;;;;;1.75;0.57;;;;;;;18.07;68.12;98042.18;1699092;83;28055;-84
2022/05/22 09:47:37;;;;;;;2.87;0.62;;;;;;;18.15;67.43;98034.75;1665962;84;28141;-84
2022/05/22 09:50:28;;;;;;;0.72;0.60;;;;;;;18.27;67.26;98028.14;1704681;83;28048;-86
2022/05/22 09:53:01;;;;;;;1.30;0.68;;;;;;;18.37;67.23;98030.95;1703392;83;28084;-86
2022/05/22 09:55:31;;;;;;;1.27;0.60;;;;;;;18.41;66.55;98022.17;1700178;83;28067;-86
2022/05/22 09:58:15;;;;;;;0.95;0.55;;;;;;;18.51;66.15;98024.14;1714514;82;28157;-86
2022/05/22 10:00:48;;;;;;;2.10;0.62;;;;;;;18.47;64.78;98018.86;1716609;83;28160;-86
2022/05/22 10:03:21;;;;;;;3.25;0.50;;;;;;;18.40;63.76;98023.16;1717119;83;28063;-85
2022/05/22 10:06:06;;;;;;;2.15;0.70;;;;;;;18.40;63.31;98012.06;1714650;83;28095;-89
2022/05/22 10:08:49;;;;;;;2.92;0.80;;;;;;;18.46;62.77;98003.95;1708618;83;28056;-86
2022/05/22 10:11:25;;;;;;;2.98;1.10;;;;;;;18.54;62.48;98005.31;1683034;84;28077;-89
2022/05/22 10:14:04;;;;;;;3.15;0.80;;;;;;;18.70;62.38;98009.26;1684000;84;28251;-89
2022/05/22 10:16:36;;;;;;;1.67;0.60;;;;;;;18.85;62.08;98008.06;1681927;84;28112;-85
2022/05/22 10:19:28;;;;;;;1.05;0.40;;;;;;;19.06;62.12;98005.67;1659421;86;28089;-89
2022/05/22 10:22:22;;;;;;;2.67;1.00;;;;;;;19.08;61.36;98018.78;1682028;84;28032;-85
2022/05/22 10:25:26;;;;;;;3.17;1.02;;;;;;;18.89;60.39;98010.70;1684262;84;28063;-85
2022/05/22 10:28:11;;;;;;;3.12;0.70;;;;;;;18.74;59.68;98001.79;1684206;84;28106;-86
2022/05/22 10:30:41;;;;;;;4.95;0.65;;;;;;;18.50;58.83;98005.26;1616200;86;28230;-90
2022/05/22 10:33:34;;;;;;;2.50;0.80;;;;;;;18.50;58.68;98003.10;1701826;83;28092;-89
2022/05/22 10:36:27;;;;;;;6.28;0.90;;;;;;;18.73;59.01;98005.43;1706419;83;28119;-85
2022/05/22 10:39:02;;;;;;;1.92;0.70;;;;;;;18.93;59.29;97997.94;1705234;83;28043;-85
2022/05/22 10:44:54;;;;;;;1.30;0.50;;;;;;;18.80;57.75;97992.66;1711049;83;28080;-86
2022/05/22 10:47:28;;;;;;;1.82;0.70;;;;;;;18.71;57.17;97992.34;1710571;83;28057;-89
2022/05/22 10:50:00;;;;;;;4.55;0.50;;;;;;;18.69;56.71;97990.37;1708574;83;27992;-85
2022/05/22 10:52:31;;;;;;;1.45;0.68;;;;;;;18.61;56.40;97985.56;1718644;83;28103;-89
2022/05/22 10:55:00;;;;;;;4.13;1.07;;;;;;;18.41;55.97;97986.40;1680215;84;28161;-89
2022/05/22 10:57:32;;;;;;;4.28;0.82;;;;;;;18.19;55.40;98000.31;1682231;83;37046;-89
2022/05/22 11:00:16;;;;;;;2.92;0.50;;;;;;;18.06;55.20;98003.94;1713545;82;28137;-85
2022/05/22 11:02:43;;;;;;;2.00;0.60;;;;;;;17.90;55.06;98006.91;1717562;82;28075;-85
2022/05/22 11:05:19;;;;;;;2.75;1.00;;;;;;;17.81;55.09;98006.57;1682307;84;28087;-85
2022/05/22 11:07:51;;;;;;;2.52;0.75;;;;;;;17.82;55.18;98015.34;1718325;82;28098;-86
2022/05/22 11:10:23;;;;;;;2.15;0.78;;;;;;;17.88;55.41;98014.20;1674199;84;28076;-86
2022/05/22 11:13:11;;;;;;;1.32;0.60;;;;;;;18.03;55.79;98017.02;1714313;82;28080;-86
2022/05/22 11:15:46;;;;;;;2.37;0.78;;;;;;;18.24;56.32;98007.27;1676356;84;28117;-85
2022/05/22 11:18:27;;;;;;;1.92;0.90;;;;;;;18.44;56.39;97997.97;1722079;82;27993;-89
2022/05/22 11:21:08;;;;;;;0.42;0.40;;;;;;;18.52;56.26;97999.80;1716887;82;28042;-89
2022/05/22 11:24:04;;;;;;;2.25;0.60;;;;;;;18.60;56.25;97992.69;1714454;82;28115;-86
2022/05/22 11:26:46;;;;;;;2.22;0.75;;;;;;;18.67;56.21;97991.52;1682613;84;28100;-85
2022/05/22 11:29:28;;;;;;;3.05;0.80;;;;;;;18.74;56.05;97995.16;1713677;82;28031;-84
2022/05/22 11:32:01;;;;;;;;;;;;;;;18.82;55.82;97993.00;1717854;82;28040;-89
2022/05/22 11:34:53;;;;;;;1.87;0.60;;;;;;;18.95;55.85;97986.64;1717359;82;20595;-89
2022/05/22 11:37:29;;;;;;;1.15;0.78;;;;;;;19.01;55.70;97996.58;1718605;82;28064;-86
2022/05/22 11:40:23;;;;;;;3.33;0.70;;;;;;;19.04;55.64;97988.27;1711962;82;28035;-86
2022/05/22 11:43:01;;;;;;;2.77;0.75;;;;;;;18.97;55.50;97996.10;1713269;82;28087;-85
2022/05/22 11:45:38;;;;;;;2.42;0.68;;;;;;;18.83;55.27;97991.48;1670405;82;28090;-84
2022/05/22 11:48:11;;;;;;;2.12;0.90;;;;;;;18.84;55.30;98006.41;1676483;84;28041;-85
2022/05/22 11:51:04;;;;;;;3.85;0.70;;;;;;;18.97;55.42;97998.75;1711760;82;28110;-86
2022/05/22 11:54:05;;;;;;;3.47;0.65;;;;;;;19.00;55.30;98000.22;1711686;82;28196;-86
2022/05/22 11:56:41;;;;;;;1.30;0.60;;;;;;;18.88;54.59;98006.88;1668141;84;32124;-84
2022/05/22 11:59:24;;;;;;;1.82;0.70;;;;;;;18.90;54.24;98002.24;1720884;83;28106;-84
2022/05/22 12:02:04;;;;;;;3.80;0.78;;;;;;;18.97;54.13;98012.02;1709519;83;28098;-84
2022/05/22 12:04:55;;;;;;;3.00;0.70;;;;;;;18.93;53.75;98004.58;1627223;86;28096;-89
2022/05/22 12:07:40;;;;;;;2.83;0.77;;;;;;;18.97;53.66;98002.73;1705819;83;28142;-89
2022/05/22 12:10:10;;;;;;;1.70;0.50;;;;;;;19.06;53.62;97999.05;1704110;83;28261;-88
2022/05/22 12:12:52;;;;;;;2.98;0.93;;;;;;;19.18;53.78;97993.70;1709982;83;28118;-89
2022/05/22 12:15:55;;;;;;;2.67;0.60;;;;;;;19.40;54.16;97997.92;1673817;84;28108;-88